createdAt,value
2018-01-27T00:00:01.006Z,89.38
2018-01-27T00:02:29.086Z,89.32
2018-01-27T00:04:57.425Z,89.31
2018-01-27T00:07:25.809Z,89.12
2018-01-27T00:09:54.169Z,89.11
2018-01-27T00:12:22.518Z,89.08
2018-01-27T00:14:50.841Z,89.23
2018-01-27T00:17:19.201Z,89.79
2018-01-27T00:19:47.521Z,89.77
2018-01-27T00:22:15.965Z,90.04
2018-01-27T00:24:44.309Z,89.61
2018-01-27T00:27:12.637Z,89.76
2018-01-27T00:29:40.995Z,89.69
2018-01-27T00:32:09.317Z,89.90
2018-01-27T00:34:37.748Z,89.72
2018-01-27T00:37:06.078Z,89.74
2018-01-27T00:39:34.501Z,89.39
2018-01-27T00:42:02.830Z,89.45
2018-01-27T00:44:31.269Z,89.20
2018-01-27T00:46:59.598Z,89.58
2018-01-27T00:49:28.021Z,89.33
2018-01-27T00:51:56.345Z,89.53
2018-01-27T00:54:24.764Z,89.66
2018-01-27T00:56:53.094Z,89.20
2018-01-27T00:59:21.450Z,88.55
2018-01-27T01:01:49.773Z,88.32
2018-01-27T01:04:18.117Z,88.13
2018-01-27T01:06:46.443Z,87.97
2018-01-27T01:09:14.785Z,87.65
2018-01-27T01:11:43.114Z,87.81
2018-01-27T01:14:11.453Z,88.09
2018-01-27T01:16:39.778Z,88.34
2018-01-27T01:19:08.125Z,88.21
2018-01-27T01:21:36.445Z,87.86
2018-01-27T01:24:04.789Z,87.08
2018-01-27T01:26:33.109Z,87.31
2018-01-27T01:29:01.456Z,87.59
2018-01-27T01:31:29.777Z,87.47
2018-01-27T01:33:58.120Z,87.14
2018-01-27T01:36:26.445Z,86.70
2018-01-27T01:38:54.796Z,86.47
2018-01-27T01:41:23.121Z,86.39
2018-01-27T01:43:57.126Z,86.45
2018-01-27T01:46:25.449Z,86.46
2018-01-27T01:48:53.793Z,86.21
2018-01-27T01:51:22.117Z,86.37
2018-01-27T01:53:50.465Z,86.72
2018-01-27T01:56:18.789Z,86.54
2018-01-27T01:58:47.135Z,86.44
2018-01-27T02:01:15.457Z,86.33
2018-01-27T02:03:43.805Z,85.99
2018-01-27T02:06:12.133Z,86.22
2018-01-27T02:08:40.473Z,85.94
2018-01-27T02:11:08.794Z,86.45
2018-01-27T02:13:37.138Z,86.13
2018-01-27T02:16:05.461Z,86.25
2018-01-27T02:18:33.809Z,86.12
2018-01-27T02:21:02.133Z,85.83
2018-01-27T02:23:30.476Z,86.72
2018-01-27T02:25:58.801Z,87.04
2018-01-27T02:28:27.126Z,87.12
2018-01-27T02:30:55.471Z,87.64
2018-01-27T02:33:23.794Z,87.66
2018-01-27T02:35:52.137Z,87.56
2018-01-27T02:38:20.460Z,87.33
2018-01-27T02:40:48.805Z,87.07
2018-01-27T02:43:17.984Z,87.74
2018-01-27T02:45:46.313Z,87.46
2018-01-27T02:48:14.641Z,87.35
2018-01-27T02:50:42.986Z,87.54
2018-01-27T02:53:11.310Z,88.03
2018-01-27T02:55:39.654Z,88.73
2018-01-27T02:58:07.982Z,89.28
2018-01-27T03:00:36.321Z,89.60
2018-01-27T03:03:04.645Z,89.44
2018-01-27T03:05:32.992Z,89.60
2018-01-27T03:08:01.325Z,89.52
2018-01-27T03:10:29.669Z,89.20
2018-01-27T03:12:57.998Z,89.03
2018-01-27T03:15:26.340Z,88.69
2018-01-27T03:17:54.665Z,88.54
2018-01-27T03:20:23.009Z,88.69
2018-01-27T03:22:51.333Z,88.41
2018-01-27T03:25:19.678Z,87.92
2018-01-27T03:27:48.002Z,87.67
2018-01-27T03:30:16.350Z,87.55
2018-01-27T03:32:44.677Z,87.44
2018-01-27T03:35:13.021Z,87.21
2018-01-27T03:37:41.346Z,86.84
2018-01-27T03:40:09.689Z,86.60
2018-01-27T03:42:38.014Z,86.36
2018-01-27T03:45:06.358Z,86.49
2018-01-27T03:47:34.681Z,86.59
2018-01-27T03:50:03.026Z,86.55
2018-01-27T03:52:31.349Z,86.66
2018-01-27T03:54:59.693Z,86.50
2018-01-27T03:57:28.022Z,86.62
2018-01-27T03:59:56.365Z,86.29
2018-01-27T04:02:24.689Z,86.26
2018-01-27T04:04:53.034Z,85.78
2018-01-27T04:07:21.357Z,85.36
2018-01-27T04:09:49.701Z,85.16
2018-01-27T04:12:18.025Z,84.91
2018-01-27T04:14:46.368Z,84.94
2018-01-27T04:17:14.701Z,84.90
2018-01-27T04:19:43.042Z,84.65
2018-01-27T04:22:11.365Z,84.47
2018-01-27T04:24:39.712Z,84.64
2018-01-27T04:27:08.029Z,84.31
2018-01-27T04:29:36.354Z,84.11
2018-01-27T04:32:04.705Z,84.01
2018-01-27T04:34:33.025Z,83.91
2018-01-27T04:37:01.373Z,83.86
2018-01-27T04:39:29.693Z,83.96
2018-01-27T04:41:58.037Z,84.11
2018-01-27T04:44:26.373Z,84.25
2018-01-27T04:46:54.725Z,84.41
2018-01-27T04:49:23.046Z,84.48
2018-01-27T04:51:51.395Z,84.66
2018-01-27T04:54:19.717Z,84.68
2018-01-27T04:56:48.067Z,84.74
2018-01-27T04:59:16.384Z,84.84
2018-01-27T05:01:44.729Z,84.92
2018-01-27T05:04:13.061Z,85.02
2018-01-27T05:06:41.406Z,85.23
2018-01-27T05:09:09.729Z,85.34
2018-01-27T05:11:38.078Z,85.50
2018-01-27T05:14:06.398Z,85.53
2018-01-27T05:16:34.745Z,85.70
2018-01-27T05:19:03.065Z,86.11
2018-01-27T05:21:31.408Z,86.23
2018-01-27T05:23:59.733Z,86.26
2018-01-27T05:26:28.077Z,86.17
2018-01-27T05:28:56.401Z,86.25
2018-01-27T05:31:24.749Z,86.08
2018-01-27T05:33:53.073Z,86.58
2018-01-27T05:36:21.421Z,86.34
2018-01-27T05:38:49.746Z,86.72
2018-01-27T05:41:18.096Z,87.05
2018-01-27T05:43:46.421Z,86.54
2018-01-27T05:46:14.765Z,86.36
2018-01-27T05:48:43.093Z,86.31
2018-01-27T05:51:11.433Z,86.28
2018-01-27T05:53:39.770Z,86.53
2018-01-27T05:56:08.105Z,86.59
2018-01-27T05:58:36.430Z,86.31
2018-01-27T06:01:04.773Z,86.41
2018-01-27T06:03:33.103Z,86.37
2018-01-27T06:06:01.449Z,86.51
2018-01-27T06:08:29.773Z,86.93
2018-01-27T06:10:58.116Z,86.86
2018-01-27T06:13:26.437Z,86.84
2018-01-27T06:15:54.785Z,87.17
2018-01-27T06:18:23.109Z,87.83
2018-01-27T06:20:51.458Z,89.27
2018-01-27T06:23:19.782Z,90.08
2018-01-27T06:25:48.129Z,89.93
2018-01-27T06:28:16.449Z,89.93
2018-01-27T06:30:44.769Z,90.05
2018-01-27T06:33:13.114Z,90.16
2018-01-27T06:35:41.437Z,90.32
2018-01-27T06:38:09.782Z,90.43
2018-01-27T06:40:38.106Z,91.24
2018-01-27T06:43:06.457Z,91.48
2018-01-27T06:45:34.921Z,91.64
2018-01-27T06:48:03.250Z,91.57
2018-01-27T06:50:31.572Z,91.29
2018-01-27T06:52:59.918Z,91.40
2018-01-27T06:55:28.242Z,91.00
2018-01-27T06:57:56.589Z,90.78
2018-01-27T07:00:24.909Z,90.66
2018-01-27T07:02:53.254Z,90.44
2018-01-27T07:05:21.578Z,90.53
2018-01-27T07:07:49.926Z,90.81
2018-01-27T07:10:18.250Z,90.76
2018-01-27T07:12:46.597Z,90.81
2018-01-27T07:15:14.917Z,90.62
2018-01-27T07:17:43.261Z,90.66
2018-01-27T07:20:11.581Z,90.59
2018-01-27T07:22:39.922Z,90.96
2018-01-27T07:25:08.246Z,91.27
2018-01-27T07:27:36.595Z,91.17
2018-01-27T07:30:04.923Z,91.09
2018-01-27T07:32:33.261Z,90.94
2018-01-27T07:35:01.592Z,90.52
2018-01-27T07:37:29.937Z,90.53
2018-01-27T07:39:58.259Z,90.64
2018-01-27T07:42:26.601Z,90.78
2018-01-27T07:44:55.089Z,90.87
2018-01-27T07:47:23.433Z,90.96
2018-01-27T07:49:51.757Z,90.85
2018-01-27T07:52:20.100Z,90.84
2018-01-27T07:54:48.423Z,90.62
2018-01-27T07:57:16.766Z,90.92
2018-01-27T07:59:45.090Z,91.24
2018-01-27T08:02:13.434Z,91.54
2018-01-27T08:04:41.761Z,91.55
2018-01-27T08:07:10.104Z,91.42
2018-01-27T08:09:38.421Z,91.51
2018-01-27T08:12:06.766Z,91.67
2018-01-27T08:14:35.097Z,91.83
2018-01-27T08:17:03.437Z,92.25
2018-01-27T08:19:31.765Z,92.37
2018-01-27T08:22:00.113Z,91.91
2018-01-27T08:24:28.437Z,91.95
2018-01-27T08:26:56.793Z,91.92
2018-01-27T08:29:25.575Z,91.72
2018-01-27T08:32:00.677Z,91.91
2018-01-27T08:34:35.162Z,91.39
2018-01-27T08:37:03.549Z,91.84
2018-01-27T08:39:31.860Z,92.22
2018-01-27T08:42:00.195Z,92.62
2018-01-27T08:44:28.545Z,93.13
2018-01-27T08:46:56.869Z,93.07
2018-01-27T08:49:25.227Z,92.74
2018-01-27T08:51:53.557Z,92.59
2018-01-27T08:54:21.966Z,92.76
2018-01-27T08:56:50.305Z,92.99
2018-01-27T08:59:18.653Z,92.73
2018-01-27T09:01:47.015Z,92.73
2018-01-27T09:04:15.349Z,92.84
2018-01-27T09:06:43.682Z,92.69
2018-01-27T09:09:12.060Z,92.66
2018-01-27T09:11:40.409Z,92.31
2018-01-27T09:14:08.770Z,92.45
2018-01-27T09:16:37.105Z,92.64
2018-01-27T09:19:05.462Z,92.81
2018-01-27T09:21:33.794Z,92.39
2018-01-27T09:24:02.146Z,92.37
2018-01-27T09:26:30.479Z,91.97
2018-01-27T09:28:58.986Z,92.09
2018-01-27T09:31:28.145Z,91.64
2018-01-27T09:33:56.610Z,91.86
2018-01-27T09:36:24.937Z,91.96
2018-01-27T09:38:53.301Z,91.90
2018-01-27T09:41:21.637Z,91.34
2018-01-27T09:43:49.989Z,91.67
2018-01-27T09:46:18.317Z,91.27
2018-01-27T09:48:46.669Z,91.65
2018-01-27T09:51:15.917Z,91.58
2018-01-27T09:53:44.370Z,90.25
2018-01-27T09:56:12.685Z,90.26
2018-01-27T09:58:41.035Z,90.07
2018-01-27T10:01:09.366Z,90.05
2018-01-27T10:03:37.718Z,89.46
2018-01-27T10:06:06.053Z,89.35
2018-01-27T10:08:34.402Z,88.66
2018-01-27T10:11:03.809Z,89.04
2018-01-27T10:13:32.229Z,89.00
2018-01-27T10:16:01.514Z,88.38
2018-01-27T10:18:29.868Z,88.23
2018-01-27T10:20:58.206Z,88.34
2018-01-27T10:23:26.545Z,87.99
2018-01-27T10:25:54.890Z,87.53
2018-01-27T10:28:23.330Z,86.84
2018-01-27T10:30:52.175Z,86.37
2018-01-27T10:33:20.522Z,86.06
2018-01-27T10:35:48.890Z,85.74
2018-01-27T10:38:17.226Z,84.78
2018-01-27T10:40:45.553Z,84.74
2018-01-27T10:43:13.902Z,84.79
2018-01-27T10:45:43.206Z,82.67
2018-01-27T10:48:11.563Z,82.80
2018-01-27T10:50:39.935Z,82.07
2018-01-27T10:53:08.265Z,82.46
2018-01-27T10:55:36.658Z,82.35
2018-01-27T10:58:04.990Z,82.91
2018-01-27T11:00:33.348Z,82.48
2018-01-27T11:03:01.678Z,82.96
2018-01-27T11:05:30.042Z,82.00
2018-01-27T11:07:58.371Z,81.28
2018-01-27T11:10:26.720Z,81.45
2018-01-27T11:12:55.079Z,80.77
2018-01-27T11:15:23.426Z,80.75
2018-01-27T11:17:52.164Z,79.88
2018-01-27T11:20:20.489Z,80.40
2018-01-27T11:22:48.814Z,78.66
2018-01-27T11:25:17.165Z,77.61
2018-01-27T11:27:45.515Z,77.53
2018-01-27T11:30:14.518Z,77.69
2018-01-27T11:32:42.841Z,81.00
2018-01-27T11:35:11.189Z,77.76
2018-01-27T11:37:39.521Z,72.67
2018-01-27T11:40:07.877Z,74.05
2018-01-27T11:42:36.235Z,74.66
2018-01-27T11:45:04.621Z,76.25
2018-01-27T11:47:32.958Z,76.67
2018-01-27T11:50:01.321Z,75.80
2018-01-27T11:52:29.650Z,75.46
2018-01-27T11:54:58.049Z,75.65
2018-01-27T11:57:26.589Z,75.28
2018-01-27T11:59:54.950Z,75.77
2018-01-27T12:02:23.282Z,75.71
2018-01-27T12:04:51.650Z,75.48
2018-01-27T12:07:19.982Z,74.11
2018-01-27T12:09:48.339Z,75.23
2018-01-27T12:12:16.674Z,74.42
2018-01-27T12:14:45.034Z,73.73
2018-01-27T12:17:14.121Z,72.04
2018-01-27T12:19:42.478Z,72.18
2018-01-27T12:22:10.810Z,72.91
2018-01-27T12:24:39.165Z,72.52
2018-01-27T12:27:07.497Z,73.26
2018-01-27T12:29:35.917Z,74.37
2018-01-27T12:32:04.401Z,73.20
2018-01-27T12:34:34.718Z,73.57
2018-01-27T12:37:03.092Z,74.49
2018-01-27T12:39:31.446Z,74.51
2018-01-27T12:41:59.855Z,75.09
2018-01-27T12:44:28.427Z,75.02
2018-01-27T12:46:56.777Z,74.24
2018-01-27T12:49:25.122Z,73.77
2018-01-27T12:51:53.456Z,73.89
2018-01-27T12:54:21.781Z,75.19
2018-01-27T12:56:50.970Z,78.77
2018-01-27T12:59:19.278Z,74.06
2018-01-27T13:01:47.626Z,74.17
2018-01-27T13:04:15.949Z,75.77
2018-01-27T13:06:44.301Z,73.83
2018-01-27T13:09:12.634Z,74.59
2018-01-27T13:11:41.297Z,74.17
2018-01-27T13:14:09.622Z,72.85
2018-01-27T13:16:37.973Z,73.54
2018-01-27T13:19:06.306Z,73.00
2018-01-27T13:21:34.649Z,71.85
2018-01-27T13:24:02.974Z,73.56
2018-01-27T13:26:31.327Z,74.72
2018-01-27T13:28:59.657Z,75.17
2018-01-27T13:31:28.017Z,74.92
2018-01-27T13:33:56.342Z,73.94
2018-01-27T13:36:24.873Z,73.90
2018-01-27T13:38:53.203Z,74.32
2018-01-27T13:41:21.553Z,72.90
2018-01-27T13:43:49.881Z,72.93
2018-01-27T13:46:18.226Z,73.77
2018-01-27T13:48:46.553Z,74.65
2018-01-27T13:51:14.901Z,75.16
2018-01-27T13:53:43.225Z,75.47
2018-01-27T13:56:12.705Z,75.23
2018-01-27T13:58:41.013Z,74.67
2018-01-27T14:01:09.366Z,74.84
2018-01-27T14:03:37.697Z,75.27
2018-01-27T14:06:06.041Z,75.39
2018-01-27T14:08:34.370Z,75.29
2018-01-27T14:11:02.721Z,74.91
2018-01-27T14:13:31.045Z,75.46
2018-01-27T14:16:00.309Z,76.54
2018-01-27T14:18:28.638Z,75.48
2018-01-27T14:20:56.997Z,74.88
2018-01-27T14:23:25.340Z,75.62
2018-01-27T14:25:53.690Z,75.82
2018-01-27T14:28:22.014Z,75.86
2018-01-27T14:30:50.366Z,75.42
2018-01-27T14:33:18.693Z,75.31
2018-01-27T14:35:47.050Z,74.57
2018-01-27T14:38:15.373Z,74.06
2018-01-27T14:40:43.720Z,74.12
2018-01-27T14:43:12.048Z,75.03
2018-01-27T14:45:41.301Z,74.59
2018-01-27T14:48:09.626Z,74.93
2018-01-27T14:50:37.978Z,74.50
2018-01-27T14:53:06.310Z,74.89
2018-01-27T14:55:35.097Z,74.81
2018-01-27T14:58:03.426Z,74.66
2018-01-27T15:00:31.748Z,74.98
2018-01-27T15:03:00.097Z,75.69
2018-01-27T15:05:28.437Z,75.68
2018-01-27T15:07:56.787Z,75.53
2018-01-27T15:10:25.105Z,75.29
2018-01-27T15:12:53.459Z,75.41
2018-01-27T15:15:22.655Z,75.87
2018-01-27T15:17:51.005Z,76.42
2018-01-27T15:20:19.334Z,76.64
2018-01-27T15:22:47.694Z,76.58
2018-01-27T15:25:16.017Z,76.78
2018-01-27T15:27:44.366Z,76.99
2018-01-27T15:30:12.696Z,77.29
2018-01-27T15:32:41.046Z,77.54
2018-01-27T15:35:10.236Z,77.96
2018-01-27T15:37:38.597Z,77.96
2018-01-27T15:40:06.921Z,78.12
2018-01-27T15:42:35.274Z,78.19
2018-01-27T15:45:03.613Z,77.72
2018-01-27T15:47:31.957Z,78.16
2018-01-27T15:50:00.304Z,77.90
2018-01-27T15:52:28.680Z,78.30
2018-01-27T15:54:57.861Z,78.49
2018-01-27T15:57:26.317Z,78.53
2018-01-27T15:59:54.638Z,78.76
2018-01-27T16:02:22.989Z,78.62
2018-01-27T16:04:51.313Z,79.05
2018-01-27T16:07:19.695Z,79.72
2018-01-27T16:09:48.036Z,79.44
2018-01-27T16:12:16.378Z,79.48
2018-01-27T16:14:44.730Z,79.41
2018-01-27T16:17:13.119Z,79.51
2018-01-27T16:19:41.409Z,80.07
2018-01-27T16:22:09.758Z,80.04
2018-01-27T16:24:38.086Z,80.32
2018-01-27T16:27:06.439Z,80.58
2018-01-27T16:29:34.765Z,80.67
2018-01-27T16:32:03.131Z,80.50
2018-01-27T16:34:32.323Z,80.85
2018-01-27T16:37:00.653Z,80.87
2018-01-27T16:39:28.985Z,81.13
2018-01-27T16:41:57.334Z,82.84
2018-01-27T16:44:25.661Z,80.52
2018-01-27T16:46:54.018Z,79.93
2018-01-27T16:49:22.342Z,79.88
2018-01-27T16:51:50.705Z,80.36
2018-01-27T16:54:19.031Z,80.37
2018-01-27T16:56:47.377Z,81.15
2018-01-27T16:59:15.705Z,80.91
2018-01-27T17:01:44.070Z,81.22
2018-01-27T17:04:12.393Z,81.40
2018-01-27T17:06:40.725Z,80.97
2018-01-27T17:09:09.074Z,80.73
2018-01-27T17:11:37.410Z,81.12
2018-01-27T17:14:05.762Z,80.95
2018-01-27T17:16:34.094Z,80.81
2018-01-27T17:19:02.453Z,80.80
2018-01-27T17:21:30.779Z,80.58
2018-01-27T17:23:59.125Z,80.37
2018-01-27T17:26:27.453Z,80.63
2018-01-27T17:28:55.806Z,80.21
2018-01-27T17:31:24.137Z,79.57
2018-01-27T17:33:52.485Z,79.59
2018-01-27T17:36:20.814Z,79.27
2018-01-27T17:38:49.163Z,79.14
2018-01-27T17:41:17.490Z,79.25
2018-01-27T17:43:45.841Z,79.07
2018-01-27T17:46:14.174Z,79.17
2018-01-27T17:48:42.533Z,79.33
2018-01-27T17:51:10.862Z,79.28
2018-01-27T17:53:39.206Z,79.68
2018-01-27T17:56:07.538Z,79.55
2018-01-27T17:58:35.893Z,79.26
2018-01-27T18:01:04.734Z,79.01
2018-01-27T18:03:33.084Z,79.22
2018-01-27T18:06:01.415Z,79.51
2018-01-27T18:08:29.765Z,79.00
2018-01-27T18:10:58.095Z,78.90
2018-01-27T18:13:26.442Z,78.82
2018-01-27T18:15:54.765Z,78.46
2018-01-27T18:18:23.116Z,78.55
2018-01-27T18:20:51.442Z,78.25
2018-01-27T18:23:19.793Z,78.08
2018-01-27T18:25:49.097Z,77.86
2018-01-27T18:28:17.445Z,77.95
2018-01-27T18:30:45.769Z,77.89
2018-01-27T18:33:14.109Z,77.92
2018-01-27T18:35:42.438Z,77.57
2018-01-27T18:38:10.781Z,77.11
2018-01-27T18:40:39.113Z,77.31
2018-01-27T18:43:07.461Z,77.02
2018-01-27T18:45:35.789Z,77.20
2018-01-27T18:48:04.142Z,77.38
2018-01-27T18:50:32.466Z,77.35
2018-01-27T18:53:00.813Z,77.33
2018-01-27T18:55:29.141Z,77.27
2018-01-27T18:57:57.491Z,77.17
2018-01-27T19:00:25.812Z,76.74
2018-01-27T19:02:54.153Z,76.50
2018-01-27T19:05:22.477Z,76.56
2018-01-27T19:07:50.852Z,76.17
2018-01-27T19:10:19.201Z,76.35
2018-01-27T19:12:47.520Z,76.38
2018-01-27T19:15:16.018Z,76.90
2018-01-27T19:17:44.472Z,76.90
2018-01-27T19:20:12.826Z,76.84
2018-01-27T19:22:41.145Z,76.37
2018-01-27T19:25:09.490Z,76.11
2018-01-27T19:27:37.813Z,76.10
2018-01-27T19:30:06.161Z,75.91
2018-01-27T19:32:34.482Z,75.83
2018-01-27T19:35:02.830Z,75.73
2018-01-27T19:37:32.108Z,75.72
2018-01-27T19:40:00.450Z,75.37
2018-01-27T19:42:28.769Z,75.27
2018-01-27T19:44:57.113Z,75.11
2018-01-27T19:47:25.434Z,75.48
2018-01-27T19:49:53.773Z,75.35
2018-01-27T19:52:22.093Z,75.60
2018-01-27T19:54:50.438Z,75.01
2018-01-27T19:57:18.917Z,75.15
2018-01-27T19:59:47.262Z,74.91
2018-01-27T20:02:15.590Z,74.87
2018-01-27T20:04:43.933Z,74.78
2018-01-27T20:07:12.257Z,74.89
2018-01-27T20:09:40.610Z,74.57
2018-01-27T20:12:08.934Z,74.94
2018-01-27T20:14:37.274Z,74.79
2018-01-27T20:17:06.489Z,74.53
2018-01-27T20:19:34.825Z,74.80
2018-01-27T20:22:03.148Z,75.00
2018-01-27T20:24:31.491Z,74.78
2018-01-27T20:26:59.812Z,74.44
2018-01-27T20:29:28.157Z,74.69
2018-01-27T20:31:56.473Z,74.42
2018-01-27T20:34:24.813Z,74.49
2018-01-27T20:36:54.077Z,74.39
2018-01-27T20:39:22.421Z,74.76
2018-01-27T20:41:50.751Z,74.89
2018-01-27T20:44:19.089Z,74.61
2018-01-27T20:46:47.410Z,74.22
2018-01-27T20:49:15.753Z,74.68
2018-01-27T20:51:44.085Z,74.43
2018-01-27T20:54:12.426Z,74.56
2018-01-27T20:56:40.745Z,74.39
2018-01-27T20:59:09.090Z,74.57
2018-01-27T21:01:37.414Z,74.88
2018-01-27T21:04:05.749Z,74.68
2018-01-27T21:06:34.074Z,74.33
2018-01-27T21:09:02.398Z,74.54
2018-01-27T21:11:30.745Z,74.34
2018-01-27T21:13:59.069Z,74.35
2018-01-27T21:16:27.405Z,74.54
2018-01-27T21:18:55.726Z,73.43
2018-01-27T21:21:24.070Z,73.26
2018-01-27T21:23:52.393Z,73.40
2018-01-27T21:26:20.738Z,73.46
2018-01-27T21:28:49.062Z,72.43
2018-01-27T21:31:17.405Z,72.23
2018-01-27T21:33:45.725Z,72.26
2018-01-27T21:36:14.062Z,71.81
2018-01-27T21:38:42.382Z,70.48
2018-01-27T21:41:10.725Z,71.41
2018-01-27T21:43:39.046Z,70.39
2018-01-27T21:46:07.382Z,69.83
2018-01-27T21:48:35.701Z,69.84
2018-01-27T21:51:04.038Z,69.47
2018-01-27T21:53:32.359Z,69.03
2018-01-27T21:56:00.698Z,68.51
2018-01-27T21:58:29.014Z,69.11
2018-01-27T22:00:57.353Z,68.87
2018-01-27T22:03:33.034Z,68.79
2018-01-27T22:06:01.373Z,68.86
2018-01-27T22:08:29.681Z,68.81
2018-01-27T22:10:58.017Z,68.72
2018-01-27T22:13:26.333Z,69.08
2018-01-27T22:15:54.670Z,68.88
2018-01-27T22:18:22.997Z,69.59
2018-01-27T22:20:51.332Z,69.28
2018-01-27T22:23:19.649Z,70.94
2018-01-27T22:25:47.985Z,72.93
2018-01-27T22:28:16.297Z,73.00
2018-01-27T22:30:44.633Z,73.49
2018-01-27T22:33:12.949Z,74.63
2018-01-27T22:35:41.291Z,74.72
2018-01-27T22:38:09.606Z,75.60
2018-01-27T22:40:37.944Z,76.18
2018-01-27T22:43:06.273Z,77.44
2018-01-27T22:45:34.605Z,78.41
2018-01-27T22:48:03.130Z,78.75
2018-01-27T22:50:31.465Z,79.92
2018-01-27T22:52:59.781Z,80.33
2018-01-27T22:55:28.113Z,80.67
2018-01-27T22:57:56.436Z,81.22
2018-01-27T23:00:24.760Z,80.93
2018-01-27T23:02:53.082Z,81.35
2018-01-27T23:05:21.422Z,81.37
2018-01-27T23:07:49.738Z,81.08
2018-01-27T23:10:18.078Z,80.89
2018-01-27T23:12:46.393Z,80.55
2018-01-27T23:15:14.707Z,81.55
2018-01-27T23:17:43.045Z,79.97
2018-01-27T23:20:11.361Z,80.58
2018-01-27T23:22:39.697Z,80.96
2018-01-27T23:25:08.049Z,80.79
2018-01-27T23:27:36.373Z,81.10
2018-01-27T23:30:04.694Z,81.21
2018-01-27T23:32:33.029Z,81.55
2018-01-27T23:35:01.338Z,81.81
2018-01-27T23:37:29.682Z,82.25
2018-01-27T23:39:57.997Z,82.23
2018-01-27T23:42:26.337Z,81.76
2018-01-27T23:44:54.654Z,81.92
2018-01-27T23:47:22.993Z,82.38
2018-01-27T23:49:51.318Z,82.73
2018-01-27T23:52:19.662Z,83.33
2018-01-27T23:54:47.982Z,83.98
2018-01-27T23:57:16.321Z,83.55
2018-01-27T23:59:44.633Z,84.02
